Terminal Aerodrome Forecast
Issued by NWS

Home | Current Version | Previous Version | Text Only | Print | Product List | Glossary On
Versions: 1 2 3 4 5 6 7 8 9 10 11 12 13 14 15 16
740
FTUS41 KBGM 251137
TAFELM
TAF
KELM 251137Z 2512/2612 VRB03KT 1SM BR OVC002
      TEMPO 2512/2513 1/4SM FG VV001
     FM251330 VRB03KT P6SM FEW250
     FM260600 00000KT 2SM BR SCT002
     FM260800 00000KT 1/2SM FG VV002=

USA.gov is the U.S. government's official web portal to all federal, state and local government web resources and services.